createdAt,value
2017-11-27T00:00:58.001Z,5.20
2017-11-27T00:03:26.688Z,5.20
2017-11-27T00:05:55.596Z,5.30
2017-11-27T00:08:24.665Z,5.30
2017-11-27T00:10:53.534Z,5.30
2017-11-27T00:13:22.354Z,5.40
2017-11-27T00:15:52.492Z,5.40
2017-11-27T00:18:21.788Z,5.40
2017-11-27T00:20:50.720Z,5.40
2017-11-27T00:23:19.465Z,5.50
2017-11-27T00:25:49.353Z,5.50
2017-11-27T00:28:18.211Z,5.50
2017-11-27T00:30:47.026Z,5.40
2017-11-27T00:33:15.941Z,5.40
2017-11-27T00:35:44.783Z,5.50
2017-11-27T00:38:19.705Z,5.50
2017-11-27T00:40:55.055Z,5.50
2017-11-27T00:43:23.807Z,5.50
2017-11-27T00:45:52.545Z,5.60
2017-11-27T00:48:21.572Z,5.60
2017-11-27T00:50:57.389Z,5.40
2017-11-27T00:53:26.443Z,5.30
2017-11-27T00:55:55.430Z,5.40
2017-11-27T00:58:27.607Z,5.40
2017-11-27T01:00:56.346Z,5.40
2017-11-27T01:03:25.276Z,5.50
2017-11-27T01:06:00.275Z,5.40
2017-11-27T01:08:29.104Z,5.40
2017-11-27T01:10:57.957Z,5.50
2017-11-27T01:13:32.899Z,5.60
2017-11-27T01:16:01.565Z,5.70
2017-11-27T01:18:30.580Z,5.70
2017-11-27T01:21:00.105Z,5.80
2017-11-27T01:23:28.790Z,5.80
2017-11-27T01:25:57.476Z,5.80
2017-11-27T01:28:32.389Z,5.80
2017-11-27T01:31:01.095Z,5.90
2017-11-27T01:33:29.756Z,5.90
2017-11-27T01:35:58.432Z,5.90
2017-11-27T01:38:27.122Z,5.90
2017-11-27T01:40:55.795Z,5.90
2017-11-27T01:43:24.466Z,5.90
2017-11-27T01:45:59.389Z,5.90
2017-11-27T01:48:28.065Z,5.90
2017-11-27T01:51:02.838Z,5.80
2017-11-27T01:53:31.518Z,5.80
2017-11-27T01:56:00.181Z,5.70
2017-11-27T01:58:28.901Z,5.60
2017-11-27T02:01:04.532Z,5.40
2017-11-27T02:03:33.217Z,5.30
2017-11-27T02:06:01.913Z,5.30
2017-11-27T02:08:30.588Z,5.30
2017-11-27T02:11:05.420Z,5.30
2017-11-27T02:13:40.247Z,5.40
2017-11-27T02:16:10.585Z,5.40
2017-11-27T02:18:42.124Z,5.40
2017-11-27T02:21:12.672Z,5.40
2017-11-27T02:23:48.516Z,5.40
2017-11-27T02:26:17.198Z,5.50
2017-11-27T02:28:52.117Z,5.40
2017-11-27T02:31:20.817Z,5.40
2017-11-27T02:33:49.510Z,5.50
2017-11-27T02:36:24.477Z,5.40
2017-11-27T02:38:54.112Z,5.50
2017-11-27T02:41:22.810Z,5.50
2017-11-27T02:43:51.488Z,5.60
2017-11-27T02:46:20.152Z,5.60
2017-11-27T02:48:49.608Z,5.60
2017-11-27T02:51:18.297Z,5.60
2017-11-27T02:53:46.981Z,5.60
2017-11-27T02:56:21.780Z,5.60
2017-11-27T02:58:56.716Z,5.60
2017-11-27T03:01:26.268Z,5.70
2017-11-27T03:03:54.949Z,5.70
2017-11-27T03:06:23.617Z,5.70
2017-11-27T03:08:52.285Z,5.80
2017-11-27T03:11:20.965Z,5.80
2017-11-27T03:13:53.713Z,5.80
2017-11-27T03:16:23.159Z,5.70
2017-11-27T03:19:02.607Z,5.60
2017-11-27T03:21:32.295Z,5.70
2017-11-27T03:24:00.952Z,5.70
2017-11-27T03:26:35.888Z,5.70
2017-11-27T03:29:10.724Z,5.60
2017-11-27T03:31:39.403Z,5.60
2017-11-27T03:34:08.846Z,5.60
2017-11-27T03:36:37.557Z,5.60
2017-11-27T03:39:06.225Z,5.70
2017-11-27T03:41:34.910Z,5.60
2017-11-27T03:44:03.585Z,5.60
2017-11-27T03:46:32.260Z,5.60
2017-11-27T03:49:07.823Z,5.50
2017-11-27T03:51:38.653Z,5.50
2017-11-27T03:54:07.480Z,5.50
2017-11-27T03:56:37.130Z,5.50
2017-11-27T03:59:06.564Z,5.40
2017-11-27T04:01:35.234Z,5.40
2017-11-27T04:04:03.900Z,5.40
2017-11-27T04:06:32.575Z,5.40
2017-11-27T04:09:01.254Z,5.50
2017-11-27T04:11:31.625Z,5.50
2017-11-27T04:14:00.312Z,5.40
2017-11-27T04:16:28.995Z,5.50
2017-11-27T04:18:58.485Z,5.50
2017-11-27T04:21:27.152Z,5.50
2017-11-27T04:23:55.833Z,5.50
2017-11-27T04:26:30.764Z,5.50
2017-11-27T04:29:00.195Z,5.40
2017-11-27T04:31:28.865Z,5.40
2017-11-27T04:33:57.580Z,5.40
2017-11-27T04:36:26.255Z,5.30
2017-11-27T04:38:54.937Z,5.30
2017-11-27T04:41:23.621Z,5.30
2017-11-27T04:43:53.161Z,5.30
2017-11-27T04:46:21.832Z,5.30
2017-11-27T04:48:50.532Z,5.30
2017-11-27T04:51:19.213Z,5.20
2017-11-27T04:53:47.881Z,5.20
2017-11-27T04:56:22.810Z,5.10
2017-11-27T04:58:51.747Z,5.00
2017-11-27T05:01:21.206Z,4.90
2017-11-27T05:03:49.882Z,4.80
2017-11-27T05:06:24.633Z,4.90
2017-11-27T05:08:53.301Z,4.90
2017-11-27T05:11:28.169Z,4.90
2017-11-27T05:14:02.947Z,5.00
2017-11-27T05:16:37.880Z,5.00
2017-11-27T05:19:12.813Z,5.10
2017-11-27T05:21:41.497Z,5.10
2017-11-27T05:24:10.163Z,5.10
2017-11-27T05:26:38.877Z,5.20
2017-11-27T05:29:07.562Z,5.20
2017-11-27T05:31:36.221Z,5.10
2017-11-27T05:34:04.909Z,5.10
2017-11-27T05:36:33.575Z,5.20
2017-11-27T05:39:03.018Z,5.20
2017-11-27T05:41:31.688Z,5.10
2017-11-27T05:44:00.368Z,5.20
2017-11-27T05:46:29.040Z,5.20
2017-11-27T05:48:58.529Z,5.10
2017-11-27T05:51:28.203Z,5.10
2017-11-27T05:53:56.872Z,5.00
2017-11-27T05:56:25.558Z,5.00
2017-11-27T05:58:55.174Z,5.00
2017-11-27T06:01:23.859Z,5.00
2017-11-27T06:03:52.535Z,5.00
2017-11-27T06:06:21.216Z,4.90
2017-11-27T06:08:49.903Z,4.90
2017-11-27T06:11:25.834Z,5.00
2017-11-27T06:14:01.683Z,5.00
2017-11-27T06:16:31.409Z,5.00
2017-11-27T06:19:06.321Z,5.00
2017-11-27T06:21:36.174Z,5.00
2017-11-27T06:24:06.037Z,4.90
2017-11-27T06:26:34.941Z,5.00
2017-11-27T06:29:09.824Z,4.90
2017-11-27T06:31:44.736Z,4.90
2017-11-27T06:34:13.410Z,5.00
2017-11-27T06:36:48.216Z,5.00
2017-11-27T06:39:17.764Z,5.00
2017-11-27T06:41:46.436Z,5.00
2017-11-27T06:44:15.111Z,5.00
2017-11-27T06:46:43.792Z,5.00
2017-11-27T06:49:12.453Z,5.00
2017-11-27T06:51:41.984Z,4.90
2017-11-27T06:54:10.648Z,5.00
2017-11-27T06:56:39.330Z,4.90
2017-11-27T06:59:08.766Z,4.90
2017-11-27T07:01:43.526Z,4.90
2017-11-27T07:04:12.200Z,5.00
2017-11-27T07:06:40.873Z,5.10
2017-11-27T07:09:15.678Z,5.10
2017-11-27T07:11:44.374Z,5.10
2017-11-27T07:14:19.589Z,5.20
2017-11-27T07:16:54.492Z,5.20
2017-11-27T07:19:23.156Z,5.20
2017-11-27T07:21:58.922Z,5.30
2017-11-27T07:24:33.844Z,5.30
2017-11-27T07:27:02.532Z,5.40
2017-11-27T07:29:33.055Z,5.50
2017-11-27T07:32:02.568Z,5.60
2017-11-27T07:34:37.380Z,5.50
2017-11-27T07:37:07.701Z,5.60
2017-11-27T07:39:41.864Z,5.50
2017-11-27T07:42:11.321Z,5.50
2017-11-27T07:44:46.249Z,5.40
2017-11-27T07:47:15.773Z,5.50
2017-11-27T07:49:44.446Z,5.40
2017-11-27T07:52:13.120Z,5.50
2017-11-27T07:54:41.799Z,5.50
2017-11-27T07:57:10.472Z,5.60
2017-11-27T07:59:45.393Z,5.60
2017-11-27T08:02:14.828Z,5.70
2017-11-27T08:04:43.517Z,5.70
2017-11-27T08:07:18.417Z,5.80
2017-11-27T08:09:47.112Z,5.80
2017-11-27T08:12:15.779Z,5.90
2017-11-27T08:14:44.443Z,6.10
2017-11-27T08:17:13.124Z,6.20
2017-11-27T08:19:48.029Z,6.50
2017-11-27T08:22:16.730Z,6.70
2017-11-27T08:24:45.373Z,6.90
2017-11-27T08:27:14.044Z,7.30
2017-11-27T08:29:48.829Z,7.80
2017-11-27T08:32:23.796Z,8.10
2017-11-27T08:34:59.475Z,8.30
2017-11-27T08:37:34.446Z,8.20
2017-11-27T08:40:04.737Z,8.00
2017-11-27T08:42:39.556Z,7.90
2017-11-27T08:45:08.229Z,7.90
2017-11-27T08:47:43.196Z,7.80
2017-11-27T08:50:15.666Z,8.10
2017-11-27T08:52:44.345Z,8.10
2017-11-27T08:55:19.185Z,8.30
2017-11-27T08:57:53.986Z,8.30
2017-11-27T09:00:29.541Z,8.00
2017-11-27T09:02:58.229Z,8.00
2017-11-27T09:05:33.029Z,7.80
2017-11-27T09:08:02.501Z,7.40
2017-11-27T09:10:37.459Z,7.40
2017-11-27T09:13:12.360Z,7.30
2017-11-27T09:15:41.031Z,7.20
2017-11-27T09:18:10.564Z,7.00
2017-11-27T09:20:39.249Z,6.90
2017-11-27T09:23:14.173Z,6.80
2017-11-27T09:25:42.860Z,6.90
2017-11-27T09:28:11.524Z,6.70
2017-11-27T09:30:40.201Z,6.70
2017-11-27T09:33:15.139Z,6.80
2017-11-27T09:35:43.821Z,6.80
2017-11-27T09:38:12.489Z,6.90
2017-11-27T09:40:41.165Z,7.10
2017-11-27T09:43:10.699Z,7.20
2017-11-27T09:45:39.385Z,7.20
2017-11-27T09:48:08.063Z,7.30
2017-11-27T09:50:42.862Z,7.50
2017-11-27T09:53:17.744Z,7.70
2017-11-27T09:55:52.682Z,8.20
2017-11-27T09:58:27.468Z,9.10
2017-11-27T10:01:03.141Z,11.00
2017-11-27T10:03:31.829Z,10.90
2017-11-27T10:06:00.509Z,11.20
2017-11-27T10:08:29.196Z,11.60
2017-11-27T10:10:57.878Z,12.90
2017-11-27T10:13:26.593Z,14.20
2017-11-27T10:15:55.272Z,15.80
2017-11-27T10:18:24.000Z,16.50
2017-11-27T10:20:53.675Z,16.40
2017-11-27T10:23:22.353Z,16.50
2017-11-27T10:25:57.262Z,16.40
2017-11-27T10:28:25.943Z,15.70
2017-11-27T10:30:54.622Z,15.50
2017-11-27T10:33:23.313Z,16.20
2017-11-27T10:35:51.993Z,17.20
2017-11-27T10:38:26.936Z,18.10
2017-11-27T10:40:55.612Z,19.30
2017-11-27T10:43:30.442Z,20.40
2017-11-27T10:45:59.972Z,21.70
2017-11-27T10:48:28.652Z,23.10
2017-11-27T10:50:57.339Z,24.30
2017-11-27T10:53:26.029Z,24.40
2017-11-27T10:55:54.704Z,23.60
2017-11-27T10:58:29.649Z,22.20
2017-11-27T11:01:03.868Z,20.70
2017-11-27T11:03:32.547Z,19.20
2017-11-27T11:06:07.532Z,17.60
2017-11-27T11:08:42.324Z,16.20
2017-11-27T11:11:17.180Z,15.20
2017-11-27T11:13:46.631Z,13.70
2017-11-27T11:16:15.317Z,13.60
2017-11-27T11:18:50.145Z,14.10
2017-11-27T11:21:25.093Z,16.20
2017-11-27T11:23:53.772Z,18.10
2017-11-27T11:26:28.733Z,18.90
2017-11-27T11:29:03.495Z,18.60
2017-11-27T11:31:37.252Z,17.70
2017-11-27T11:34:05.965Z,16.70
2017-11-27T11:36:40.912Z,15.90
2017-11-27T11:39:10.353Z,14.60
2017-11-27T11:41:45.182Z,14.50
2017-11-27T11:44:19.972Z,14.20
2017-11-27T11:46:48.680Z,14.10
2017-11-27T11:49:23.505Z,14.30
2017-11-27T11:51:52.189Z,14.40
2017-11-27T11:54:21.307Z,14.20
2017-11-27T11:56:58.355Z,13.90
2017-11-27T11:59:27.781Z,13.00
2017-11-27T12:02:02.701Z,13.00
2017-11-27T12:04:31.452Z,12.50
2017-11-27T12:07:06.640Z,12.10
2017-11-27T12:09:41.679Z,11.90
2017-11-27T12:12:10.454Z,11.60
2017-11-27T12:14:39.226Z,11.20
2017-11-27T12:17:08.903Z,10.90
2017-11-27T12:19:38.462Z,10.70
2017-11-27T12:22:13.561Z,10.40
2017-11-27T12:24:42.305Z,10.20
2017-11-27T12:27:11.860Z,10.10
2017-11-27T12:29:40.741Z,10.10
2017-11-27T12:32:09.424Z,10.10
2017-11-27T12:34:44.349Z,10.10
2017-11-27T12:37:13.041Z,10.20
2017-11-27T12:39:48.730Z,10.10
2017-11-27T12:42:17.420Z,10.10
2017-11-27T12:44:52.301Z,10.10
2017-11-27T12:47:27.208Z,10.10
2017-11-27T12:49:56.898Z,10.10
2017-11-27T12:52:31.718Z,10.20
2017-11-27T12:55:00.458Z,10.30
2017-11-27T12:57:29.912Z,10.30
2017-11-27T12:59:58.664Z,10.30
2017-11-27T13:02:34.236Z,10.10
2017-11-27T13:05:09.435Z,10.00
2017-11-27T13:07:45.112Z,9.80
2017-11-27T13:10:13.928Z,9.70
2017-11-27T13:12:42.568Z,9.60
2017-11-27T13:15:17.501Z,9.40
2017-11-27T13:17:47.057Z,9.00
2017-11-27T13:20:15.740Z,8.80
2017-11-27T13:22:50.513Z,8.70
2017-11-27T13:25:19.196Z,8.60
2017-11-27T13:27:56.119Z,8.70
2017-11-27T13:30:24.808Z,8.70
2017-11-27T13:32:53.516Z,8.60
2017-11-27T13:35:28.454Z,8.60
2017-11-27T13:37:57.148Z,8.60
2017-11-27T13:40:27.559Z,8.70
2017-11-27T13:42:56.241Z,8.60
2017-11-27T13:45:24.924Z,8.80
2017-11-27T13:47:53.604Z,8.90
2017-11-27T13:50:28.542Z,9.00
2017-11-27T13:53:04.058Z,9.20
2017-11-27T13:55:32.734Z,9.20
2017-11-27T13:58:01.414Z,9.30
2017-11-27T14:00:30.097Z,9.20
2017-11-27T14:03:05.045Z,9.20
2017-11-27T14:05:33.741Z,9.10
2017-11-27T14:08:02.409Z,9.00
2017-11-27T14:10:31.114Z,9.00
2017-11-27T14:13:00.712Z,8.90
2017-11-27T14:15:35.621Z,9.00
2017-11-27T14:18:10.579Z,9.00
2017-11-27T14:20:45.424Z,9.00
2017-11-27T14:23:14.105Z,9.10
2017-11-27T14:25:42.785Z,9.00
2017-11-27T14:28:11.474Z,8.90
2017-11-27T14:30:46.407Z,8.80
2017-11-27T14:33:15.090Z,8.70
2017-11-27T14:35:43.775Z,8.70
2017-11-27T14:38:18.717Z,8.60
2017-11-27T14:40:48.280Z,8.50
2017-11-27T14:43:16.968Z,8.50
2017-11-27T14:45:45.639Z,8.50
2017-11-27T14:48:20.476Z,8.40
2017-11-27T14:50:55.237Z,8.30
2017-11-27T14:53:30.188Z,8.20
2017-11-27T14:56:05.022Z,8.10
2017-11-27T14:58:33.745Z,7.90
2017-11-27T15:01:03.278Z,7.80
2017-11-27T15:03:38.282Z,7.70
2017-11-27T15:06:13.070Z,7.60
2017-11-27T15:08:46.886Z,7.50
2017-11-27T15:11:21.809Z,7.50
2017-11-27T15:13:56.601Z,7.40
2017-11-27T15:16:31.528Z,7.30
2017-11-27T15:19:06.650Z,7.20
2017-11-27T15:21:36.083Z,7.10
2017-11-27T15:24:11.020Z,7.00
2017-11-27T15:26:46.550Z,6.90
2017-11-27T15:29:21.489Z,6.90
2017-11-27T15:31:50.156Z,6.90
2017-11-27T15:34:25.762Z,7.00
2017-11-27T15:36:54.448Z,6.90
2017-11-27T15:39:26.179Z,6.90
2017-11-27T15:41:54.861Z,6.90
2017-11-27T15:44:23.532Z,6.80
2017-11-27T15:46:58.391Z,6.70
2017-11-27T15:49:33.169Z,6.60
2017-11-27T15:52:02.627Z,6.70
2017-11-27T15:54:37.501Z,6.60
2017-11-27T15:57:06.201Z,6.70
2017-11-27T15:59:34.930Z,6.70
2017-11-27T16:02:10.695Z,6.60
2017-11-27T16:04:39.430Z,6.60
2017-11-27T16:07:08.181Z,6.60
2017-11-27T16:09:43.154Z,6.60
2017-11-27T16:12:13.601Z,6.50
2017-11-27T16:14:48.630Z,6.40
2017-11-27T16:17:17.549Z,6.50
2017-11-27T16:19:52.434Z,6.60
2017-11-27T16:22:21.120Z,6.60
2017-11-27T16:24:49.795Z,6.60
2017-11-27T16:27:18.472Z,6.50
2017-11-27T16:29:48.336Z,6.50
2017-11-27T16:32:17.077Z,6.40
2017-11-27T16:34:45.764Z,6.40
2017-11-27T16:37:14.520Z,6.50
2017-11-27T16:39:50.338Z,6.50
2017-11-27T16:42:19.021Z,6.60
2017-11-27T16:44:48.769Z,6.60
2017-11-27T16:47:23.716Z,6.60
2017-11-27T16:49:58.557Z,6.60
2017-11-27T16:52:28.196Z,6.50
2017-11-27T16:55:03.078Z,6.50
2017-11-27T16:57:37.831Z,6.60
2017-11-27T17:00:12.707Z,6.60
2017-11-27T17:02:41.374Z,6.60
2017-11-27T17:05:10.117Z,6.60
2017-11-27T17:07:39.062Z,6.60
2017-11-27T17:10:07.728Z,6.60
2017-11-27T17:12:43.381Z,6.40
2017-11-27T17:15:12.052Z,6.30
2017-11-27T17:17:40.726Z,6.40
2017-11-27T17:20:09.401Z,6.40
2017-11-27T17:22:44.194Z,6.40
2017-11-27T17:25:12.865Z,6.30
2017-11-27T17:27:48.607Z,6.20
2017-11-27T17:30:17.287Z,6.10
2017-11-27T17:32:52.847Z,6.20
2017-11-27T17:35:27.748Z,6.10
2017-11-27T17:37:56.459Z,6.20
2017-11-27T17:40:25.141Z,6.20
2017-11-27T17:42:54.933Z,6.20
2017-11-27T17:45:27.364Z,6.10
2017-11-27T17:50:41.367Z,5.90
2017-11-27T17:53:14.562Z,5.90
2017-11-27T17:55:56.916Z,5.90
2017-11-27T17:58:29.068Z,5.90
2017-11-27T18:01:07.584Z,6.00
2017-11-27T18:03:41.114Z,5.90
2017-11-27T18:06:18.596Z,6.00
2017-11-27T18:08:52.056Z,6.00
2017-11-27T18:11:22.807Z,5.90
2017-11-27T18:13:59.708Z,6.00
2017-11-27T18:16:35.440Z,5.90
2017-11-27T18:19:14.206Z,5.90
2017-11-27T18:21:45.655Z,5.90
2017-11-27T18:24:16.333Z,5.90
2017-11-27T18:26:47.909Z,5.90
2017-11-27T18:29:18.709Z,6.00
2017-11-27T18:31:53.853Z,5.90
2017-11-27T18:34:24.840Z,5.80
2017-11-27T18:37:00.677Z,5.70
2017-11-27T18:39:35.534Z,5.70
2017-11-27T18:42:07.318Z,5.70
2017-11-27T18:47:16.459Z,5.70
2017-11-27T18:49:46.224Z,5.60
2017-11-27T18:52:21.872Z,5.60
2017-11-27T18:54:54.811Z,5.60
2017-11-27T18:57:31.310Z,5.60
2017-11-27T19:00:02.672Z,5.60
2017-11-27T19:02:31.889Z,5.60
2017-11-27T19:05:00.940Z,5.60
2017-11-27T19:10:41.146Z,5.40
2017-11-27T19:13:14.044Z,5.60
2017-11-27T19:15:59.452Z,5.50
2017-11-27T19:18:28.136Z,5.60
2017-11-27T19:20:58.539Z,5.50
2017-11-27T19:23:33.388Z,5.60
2017-11-27T19:26:13.729Z,5.60
2017-11-27T19:29:00.809Z,5.70
2017-11-27T19:31:57.442Z,5.60
2017-11-27T19:34:30.609Z,5.60
2017-11-27T19:36:59.460Z,5.70
2017-11-27T19:42:34.611Z,5.60
2017-11-27T19:45:13.676Z,5.60
2017-11-27T19:47:49.228Z,5.60
2017-11-27T19:50:17.937Z,5.50
2017-11-27T19:52:46.628Z,5.60
2017-11-27T19:55:21.551Z,5.60
2017-11-27T19:57:51.846Z,5.60
2017-11-27T20:00:26.696Z,5.50
2017-11-27T20:02:55.443Z,5.60
2017-11-27T20:05:24.932Z,5.60
2017-11-27T20:07:55.396Z,5.60
2017-11-27T20:10:24.134Z,5.60
2017-11-27T20:12:52.809Z,5.70
2017-11-27T20:15:21.485Z,5.70
2017-11-27T20:17:56.282Z,5.70
2017-11-27T20:20:31.832Z,5.80
2017-11-27T20:23:14.178Z,5.70
2017-11-27T20:25:50.917Z,5.70
2017-11-27T20:28:20.076Z,5.70
2017-11-27T20:30:54.936Z,5.70
2017-11-27T20:33:23.620Z,5.70
2017-11-27T20:35:52.293Z,5.70
2017-11-27T20:38:27.077Z,5.80
2017-11-27T20:40:55.743Z,5.80
2017-11-27T20:43:27.461Z,5.80
2017-11-27T20:45:59.354Z,5.90
2017-11-27T20:48:28.076Z,5.80
2017-11-27T20:51:03.127Z,5.80
2017-11-27T20:53:33.874Z,5.70
2017-11-27T20:56:06.318Z,5.70
2017-11-27T20:58:35.658Z,5.80
2017-11-27T21:01:11.799Z,5.80
2017-11-27T21:03:40.930Z,5.80
2017-11-27T21:06:10.678Z,5.80
2017-11-27T21:08:40.106Z,5.80
2017-11-27T21:11:09.873Z,5.80
2017-11-27T21:13:38.558Z,5.80
2017-11-27T21:16:07.311Z,5.80
2017-11-27T21:18:35.994Z,5.70
2017-11-27T21:21:04.728Z,5.70
2017-11-27T21:23:40.576Z,5.80
2017-11-27T21:26:15.462Z,5.70
2017-11-27T21:28:50.268Z,5.70
2017-11-27T21:31:37.713Z,5.70
2017-11-27T21:34:12.499Z,5.70
2017-11-27T21:36:49.271Z,5.70
2017-11-27T21:39:22.008Z,5.70
2017-11-27T21:41:51.462Z,5.70
2017-11-27T21:44:27.018Z,5.70
2017-11-27T21:46:55.822Z,5.70
2017-11-27T21:49:25.389Z,5.70
2017-11-27T21:52:01.949Z,5.70
2017-11-27T21:54:30.619Z,5.70
2017-11-27T21:57:06.181Z,5.70
2017-11-27T21:59:36.879Z,5.60
2017-11-27T22:02:13.019Z,5.70
2017-11-27T22:04:42.474Z,5.70
2017-11-27T22:07:11.744Z,5.60
2017-11-27T22:09:40.584Z,5.70
2017-11-27T22:12:09.285Z,5.80
2017-11-27T22:14:43.148Z,5.70
2017-11-27T22:17:18.753Z,5.70
2017-11-27T22:19:54.531Z,5.70
2017-11-27T22:22:29.910Z,5.80
2017-11-27T22:25:05.259Z,5.80
2017-11-27T22:27:34.589Z,5.80
2017-11-27T22:30:03.353Z,5.80
2017-11-27T22:32:38.789Z,5.80
2017-11-27T22:35:07.472Z,5.80
2017-11-27T22:37:36.144Z,5.80
2017-11-27T22:40:10.978Z,5.70
2017-11-27T22:42:45.799Z,5.70
2017-11-27T22:45:14.496Z,5.80
2017-11-27T22:47:43.182Z,5.80
2017-11-27T22:50:18.097Z,5.80
2017-11-27T22:52:48.598Z,5.80
2017-11-27T22:55:24.209Z,5.80
2017-11-27T22:57:56.153Z,5.90
2017-11-27T23:00:31.893Z,5.90
2017-11-27T23:03:01.953Z,5.80
2017-11-27T23:05:30.959Z,5.90
2017-11-27T23:08:00.556Z,5.80
2017-11-27T23:10:35.597Z,5.80
2017-11-27T23:13:05.442Z,5.70
2017-11-27T23:15:34.647Z,5.70
2017-11-27T23:18:03.349Z,5.80
2017-11-27T23:20:38.181Z,5.80
2017-11-27T23:23:13.009Z,5.90
2017-11-27T23:25:41.691Z,5.80
2017-11-27T23:28:10.367Z,5.80
2017-11-27T23:30:39.037Z,5.80
2017-11-27T23:33:07.713Z,5.70
2017-11-27T23:35:42.650Z,5.70
2017-11-27T23:38:11.379Z,5.80
2017-11-27T23:40:46.281Z,5.80
2017-11-27T23:43:15.836Z,5.80
2017-11-27T23:45:51.449Z,5.90
2017-11-27T23:48:21.065Z,5.80
2017-11-27T23:50:50.536Z,5.80
2017-11-27T23:53:19.245Z,5.80
2017-11-27T23:55:54.149Z,5.80
2017-11-27T23:58:22.807Z,5.70
